Flight Track Log - Related Links

Times and Time Zones

All times are in EDT time to prevent confusion due to time zone crossing. See the N762NC flight status page for this flight to view local times or setup timezone preferences in your user account.

Time Position Orientation Groundspeed Altitude Reporting Facility
EDT Latitude Longitude Course Direction KTS MPH feet Rate Location/Type
Sat 12:43:35 PM 33.6667 -84.4833 348° North 210 242 3,000  Level Atlanta TRACON
Sat 12:44:35 PM 33.6833 -84.5667 284° West 250 288 5,700 2,381 Climbing Atlanta TRACON
Sat 12:45:41 PM 33.7667 -84.5833 351° North 294 338 8,000 1,770 Climbing Atlanta TRACON
Sat 12:47:00 PM 34.0317 -84.7738 328° Northwest  Level Estimated
Sat 12:47:55 PM 33.9664 -84.5797 North 330 380 11,600  Level Atlanta Center
Sat 12:48:00 PM 34.1272 -84.7988 348° North  Level FlightAware Approximate
Sat 12:48:55 PM 34.0494 -84.6406 329° Northwest 338 389 13,600  Level Atlanta Center
Sat 12:49:00 PM 34.2227 -84.8239 348° North  Level FlightAware Approximate
Sat 12:49:55 PM 34.1369 -84.6989 331° Northwest 349 402 15,300  Level Atlanta Center
Sat 12:50:55 PM 34.2283 -84.7572 332° Northwest 366 421 17,200 1,850 Climbing Atlanta Center
Sat 12:51:55 PM 34.3261 -84.8111 336° Northwest 378 435 19,000 1,550 Climbing Atlanta Center
Sat 12:52:55 PM 34.4156 -84.8572 337° Northwest 383 441 20,300 1,400 Climbing Atlanta Center
Sat 12:53:55 PM 34.5114 -84.9033 338° Northwest 377 434 21,800 1,350 Climbing Atlanta Center
Sat 12:54:55 PM 34.6111 -84.9550 337° Northwest 377 434 23,000 -382 Climbing Atlanta Center
Sat 12:56:00 PM 34.6988 -85.0053 335° Northwest  Level FlightAware Approximate
Sat 01:03:00 PM 35.1913 -85.4565 311° West  Level FlightAware Approximate
Sat 01:04:00 PM 35.2524 -85.5362 315° West  Level FlightAware Approximate
Sat 01:04:07 PM 35.4361 -85.7244 311° West 394 453 17,900  Level Memphis Center
Sat 01:05:00 PM 35.3161 -85.6133 315° West  Level FlightAware Approximate
Sat 01:06:00 PM 35.3797 -85.6906 315° West  Level FlightAware Approximate
Sat 01:06:00 PM 35.5498 -85.8801 311° West  Level Estimated
Sat 01:07:00 PM 35.4433 -85.7679 315° West  Level FlightAware Approximate
Sat 01:08:00 PM 35.5049 -85.8490 309° West  Level FlightAware Approximate
Sat 01:09:00 PM 35.5625 -85.9345 311° West  Level FlightAware Approximate
Sat 01:13:00 PM 35.9705 -86.4625 313° West  Level Estimated
Sat 01:14:00 PM 36.0303 -86.5462 307° West  Level Estimated
Sat 01:15:00 PM 36.0901 -86.6300 141° Southeast  Level Estimated
Sat 01:15:07 PM 35.9683 -86.4739 141° Southeast 224 258 3,000  Level Memphis Center
Sat 01:16:00 PM 36.1167 -86.6667 141° Southeast  Level FlightAware Approximate
Sat 01:16:07 PM 36.0097 -86.5261 314° West 215 247 3,100  Level Memphis Center
Sat 01:17:00 PM 36.1245 -86.6782 141° Southeast  Level Estimated
Sat 01:17:07 PM 36.0486 -86.5756 314° West 207 238 2,700  Level Memphis Center
Sat 01:18:00 PM 36.1245 -86.6782 141° Southeast  Level Estimated
Sat 01:18:07 PM 36.0814 -86.6203 312° West 189 217 1,700  Level Memphis Center
Sat 01:19:00 PM 36.1245 -86.6782 141° Southeast  Level Estimated
Sat 01:19:07 PM 36.1094 -86.6550 315° West 155 178 1,000  Level Memphis Center
Sat 01:20:00 PM 36.1245 -86.6782 141° Southeast  Level Estimated
Sat 01:20:07 PM 36.1378 -86.6922 313° West 139 160 600  Level Memphis Center

Login

Don't have an account? Register now (free) for customized features, flight alerts, and more!